sensor_id;sensor_type;location;lat;lon;timestamp;temperature;humidity
17571;DHT22;8903;52.220;20.978;2022-10-28T00:01:11;10.60;99.90
17571;DHT22;8903;52.220;20.978;2022-10-28T00:03:40;10.60;99.90
17571;DHT22;8903;52.220;20.978;2022-10-28T00:06:11;10.60;99.90
17571;DHT22;8903;52.220;20.978;2022-10-28T00:08:39;10.60;99.90
17571;DHT22;8903;52.220;20.978;2022-10-28T00:11:08;10.60;99.90
17571;DHT22;8903;52.220;20.978;2022-10-28T00:13:36;10.60;99.90
17571;DHT22;8903;52.220;20.978;2022-10-28T00:16:05;10.60;99.90
17571;DHT22;8903;52.220;20.978;2022-10-28T00:18:32;10.60;99.90
17571;DHT22;8903;52.220;20.978;2022-10-28T00:21:00;10.60;99.90
17571;DHT22;8903;52.220;20.978;2022-10-28T00:23:28;10.60;99.90
17571;DHT22;8903;52.220;20.978;2022-10-28T00:26:03;10.60;99.90
17571;DHT22;8903;52.220;20.978;2022-10-28T00:28:30;10.50;99.90
17571;DHT22;8903;52.220;20.978;2022-10-28T00:31:03;10.50;99.90
17571;DHT22;8903;52.220;20.978;2022-10-28T00:33:30;10.50;99.90
17571;DHT22;8903;52.220;20.978;2022-10-28T00:36:06;10.50;99.90
17571;DHT22;8903;52.220;20.978;2022-10-28T00:38:33;10.50;99.90
17571;DHT22;8903;52.220;20.978;2022-10-28T00:41:01;10.50;99.90
17571;DHT22;8903;52.220;20.978;2022-10-28T00:43:36;10.50;99.90
17571;DHT22;8903;52.220;20.978;2022-10-28T00:46:10;10.50;99.90
17571;DHT22;8903;52.220;20.978;2022-10-28T00:48:42;10.50;99.90
17571;DHT22;8903;52.220;20.978;2022-10-28T00:51:10;10.40;99.90
17571;DHT22;8903;52.220;20.978;2022-10-28T00:53:37;10.40;99.90
17571;DHT22;8903;52.220;20.978;2022-10-28T00:56:08;10.40;99.90
17571;DHT22;8903;52.220;20.978;2022-10-28T00:58:35;10.40;99.90
17571;DHT22;8903;52.220;20.978;2022-10-28T01:01:02;10.40;99.90
17571;DHT22;8903;52.220;20.978;2022-10-28T01:03:29;10.40;99.90
17571;DHT22;8903;52.220;20.978;2022-10-28T01:05:57;10.30;99.90
17571;DHT22;8903;52.220;20.978;2022-10-28T01:08:24;10.40;99.90
17571;DHT22;8903;52.220;20.978;2022-10-28T01:11:01;10.40;99.90
17571;DHT22;8903;52.220;20.978;2022-10-28T01:13:39;10.40;99.90
17571;DHT22;8903;52.220;20.978;2022-10-28T01:16:18;10.40;99.90
17571;DHT22;8903;52.220;20.978;2022-10-28T01:18:58;10.40;99.90
17571;DHT22;8903;52.220;20.978;2022-10-28T01:22:03;10.50;99.90
17571;DHT22;8903;52.220;20.978;2022-10-28T01:25:01;10.40;99.90
17571;DHT22;8903;52.220;20.978;2022-10-28T01:27:54;10.40;99.90
17571;DHT22;8903;52.220;20.978;2022-10-28T01:30:25;10.50;99.90
17571;DHT22;8903;52.220;20.978;2022-10-28T01:33:00;10.40;99.90
17571;DHT22;8903;52.220;20.978;2022-10-28T01:35:39;10.50;99.90
17571;DHT22;8903;52.220;20.978;2022-10-28T01:38:17;10.40;99.90
17571;DHT22;8903;52.220;20.978;2022-10-28T01:40:54;10.40;99.90
17571;DHT22;8903;52.220;20.978;2022-10-28T01:43:27;10.40;99.90
17571;DHT22;8903;52.220;20.978;2022-10-28T01:45:59;10.40;99.90
17571;DHT22;8903;52.220;20.978;2022-10-28T01:48:33;10.30;99.90
17571;DHT22;8903;52.220;20.978;2022-10-28T01:51:04;10.30;99.90
17571;DHT22;8903;52.220;20.978;2022-10-28T01:53:35;10.30;99.90
17571;DHT22;8903;52.220;20.978;2022-10-28T01:56:09;10.30;99.90
17571;DHT22;8903;52.220;20.978;2022-10-28T01:58:38;10.20;99.90
17571;DHT22;8903;52.220;20.978;2022-10-28T02:01:06;10.20;99.90
17571;DHT22;8903;52.220;20.978;2022-10-28T02:03:36;10.20;99.90
17571;DHT22;8903;52.220;20.978;2022-10-28T02:06:04;10.20;99.90
17571;DHT22;8903;52.220;20.978;2022-10-28T02:11:37;10.20;99.90
17571;DHT22;8903;52.220;20.978;2022-10-28T02:14:16;10.30;99.90
17571;DHT22;8903;52.220;20.978;2022-10-28T02:16:50;10.20;99.90
17571;DHT22;8903;52.220;20.978;2022-10-28T02:19:25;10.20;99.90
17571;DHT22;8903;52.220;20.978;2022-10-28T02:22:04;10.20;99.90
17571;DHT22;8903;52.220;20.978;2022-10-28T02:24:39;10.20;99.90
17571;DHT22;8903;52.220;20.978;2022-10-28T02:27:14;10.20;99.90
17571;DHT22;8903;52.220;20.978;2022-10-28T02:29:48;10.20;99.90
17571;DHT22;8903;52.220;20.978;2022-10-28T02:32:19;10.20;99.90
17571;DHT22;8903;52.220;20.978;2022-10-28T02:34:52;10.20;99.90
17571;DHT22;8903;52.220;20.978;2022-10-28T02:37:22;10.20;99.90
17571;DHT22;8903;52.220;20.978;2022-10-28T02:39:53;10.20;99.90
17571;DHT22;8903;52.220;20.978;2022-10-28T02:42:24;10.10;99.90
17571;DHT22;8903;52.220;20.978;2022-10-28T02:44:56;10.10;99.90
17571;DHT22;8903;52.220;20.978;2022-10-28T02:47:29;10.10;99.90
17571;DHT22;8903;52.220;20.978;2022-10-28T02:50:00;10.00;99.90
17571;DHT22;8903;52.220;20.978;2022-10-28T02:52:29;10.00;99.90
17571;DHT22;8903;52.220;20.978;2022-10-28T02:54:58;10.00;99.90
17571;DHT22;8903;52.220;20.978;2022-10-28T02:57:27;10.00;99.90
17571;DHT22;8903;52.220;20.978;2022-10-28T02:59:58;9.90;99.90
17571;DHT22;8903;52.220;20.978;2022-10-28T03:02:25;9.90;99.90
17571;DHT22;8903;52.220;20.978;2022-10-28T03:04:53;9.90;99.90
17571;DHT22;8903;52.220;20.978;2022-10-28T03:07:22;9.90;99.90
17571;DHT22;8903;52.220;20.978;2022-10-28T03:09:48;9.90;99.90
17571;DHT22;8903;52.220;20.978;2022-10-28T03:12:15;9.80;99.90
17571;DHT22;8903;52.220;20.978;2022-10-28T03:14:42;9.80;99.90
17571;DHT22;8903;52.220;20.978;2022-10-28T03:17:09;9.80;99.90
17571;DHT22;8903;52.220;20.978;2022-10-28T03:19:36;9.80;99.90
17571;DHT22;8903;52.220;20.978;2022-10-28T03:22:03;9.70;99.90
17571;DHT22;8903;52.220;20.978;2022-10-28T03:24:31;9.70;99.90
17571;DHT22;8903;52.220;20.978;2022-10-28T03:26:58;9.70;99.90
17571;DHT22;8903;52.220;20.978;2022-10-28T03:29:25;9.80;99.90
17571;DHT22;8903;52.220;20.978;2022-10-28T03:31:52;9.70;99.90
17571;DHT22;8903;52.220;20.978;2022-10-28T03:34:19;9.70;99.90
17571;DHT22;8903;52.220;20.978;2022-10-28T03:36:46;9.70;99.90
17571;DHT22;8903;52.220;20.978;2022-10-28T03:39:13;9.70;99.90
17571;DHT22;8903;52.220;20.978;2022-10-28T03:41:41;9.70;99.90
17571;DHT22;8903;52.220;20.978;2022-10-28T03:44:08;9.70;99.90
17571;DHT22;8903;52.220;20.978;2022-10-28T03:46:35;9.70;99.90
17571;DHT22;8903;52.220;20.978;2022-10-28T03:49:02;9.70;99.90
17571;DHT22;8903;52.220;20.978;2022-10-28T03:51:29;9.70;99.90
17571;DHT22;8903;52.220;20.978;2022-10-28T03:53:56;9.70;99.90
17571;DHT22;8903;52.220;20.978;2022-10-28T03:56:23;9.70;99.90
17571;DHT22;8903;52.220;20.978;2022-10-28T03:58:51;9.60;99.90
17571;DHT22;8903;52.220;20.978;2022-10-28T04:01:18;9.60;99.90
17571;DHT22;8903;52.220;20.978;2022-10-28T04:03:45;9.60;99.90
17571;DHT22;8903;52.220;20.978;2022-10-28T04:06:11;9.60;99.90
17571;DHT22;8903;52.220;20.978;2022-10-28T04:08:39;9.50;99.90
17571;DHT22;8903;52.220;20.978;2022-10-28T04:11:05;9.50;99.90
17571;DHT22;8903;52.220;20.978;2022-10-28T04:13:33;9.50;99.90
17571;DHT22;8903;52.220;20.978;2022-10-28T04:16:01;9.40;99.90
17571;DHT22;8903;52.220;20.978;2022-10-28T04:18:28;9.40;99.90
17571;DHT22;8903;52.220;20.978;2022-10-28T04:20:55;9.40;99.90
17571;DHT22;8903;52.220;20.978;2022-10-28T04:23:22;9.40;99.90
17571;DHT22;8903;52.220;20.978;2022-10-28T04:25:51;9.40;99.90
17571;DHT22;8903;52.220;20.978;2022-10-28T04:28:19;9.40;99.90
17571;DHT22;8903;52.220;20.978;2022-10-28T04:30:46;9.40;99.90
17571;DHT22;8903;52.220;20.978;2022-10-28T04:33:15;9.40;99.90
17571;DHT22;8903;52.220;20.978;2022-10-28T04:35:42;9.40;99.90
17571;DHT22;8903;52.220;20.978;2022-10-28T04:38:09;9.40;99.90
17571;DHT22;8903;52.220;20.978;2022-10-28T04:40:36;9.40;99.90
17571;DHT22;8903;52.220;20.978;2022-10-28T04:43:03;9.40;99.90
17571;DHT22;8903;52.220;20.978;2022-10-28T04:45:30;9.40;99.90
17571;DHT22;8903;52.220;20.978;2022-10-28T04:47:58;9.40;99.90
17571;DHT22;8903;52.220;20.978;2022-10-28T04:50:26;9.40;99.90
17571;DHT22;8903;52.220;20.978;2022-10-28T04:52:53;9.40;99.90
17571;DHT22;8903;52.220;20.978;2022-10-28T04:55:20;9.40;99.90
17571;DHT22;8903;52.220;20.978;2022-10-28T04:57:53;9.40;99.90
17571;DHT22;8903;52.220;20.978;2022-10-28T05:00:20;9.40;99.90
17571;DHT22;8903;52.220;20.978;2022-10-28T05:02:47;9.40;99.90
17571;DHT22;8903;52.220;20.978;2022-10-28T05:05:15;9.30;99.90
17571;DHT22;8903;52.220;20.978;2022-10-28T05:07:43;9.30;99.90
17571;DHT22;8903;52.220;20.978;2022-10-28T05:10:10;9.30;99.90
17571;DHT22;8903;52.220;20.978;2022-10-28T05:12:40;9.30;99.90
17571;DHT22;8903;52.220;20.978;2022-10-28T05:15:12;9.30;99.90
17571;DHT22;8903;52.220;20.978;2022-10-28T05:17:40;9.30;99.90
17571;DHT22;8903;52.220;20.978;2022-10-28T05:20:09;9.30;99.90
17571;DHT22;8903;52.220;20.978;2022-10-28T05:22:37;9.30;99.90
17571;DHT22;8903;52.220;20.978;2022-10-28T05:25:05;9.30;99.90
17571;DHT22;8903;52.220;20.978;2022-10-28T05:27:32;9.30;99.90
17571;DHT22;8903;52.220;20.978;2022-10-28T05:29:59;9.30;99.90
17571;DHT22;8903;52.220;20.978;2022-10-28T05:32:26;9.20;99.90
17571;DHT22;8903;52.220;20.978;2022-10-28T05:34:53;9.30;99.90
17571;DHT22;8903;52.220;20.978;2022-10-28T05:37:20;9.20;99.90
17571;DHT22;8903;52.220;20.978;2022-10-28T05:39:46;9.30;99.90
17571;DHT22;8903;52.220;20.978;2022-10-28T05:42:15;9.30;99.90
17571;DHT22;8903;52.220;20.978;2022-10-28T05:44:42;9.30;99.90
17571;DHT22;8903;52.220;20.978;2022-10-28T05:47:09;9.30;99.90
17571;DHT22;8903;52.220;20.978;2022-10-28T05:49:36;9.20;99.90
17571;DHT22;8903;52.220;20.978;2022-10-28T05:52:03;9.30;99.90
17571;DHT22;8903;52.220;20.978;2022-10-28T05:54:30;9.20;99.90
17571;DHT22;8903;52.220;20.978;2022-10-28T05:56:57;9.20;99.90
17571;DHT22;8903;52.220;20.978;2022-10-28T05:59:25;9.20;99.90
17571;DHT22;8903;52.220;20.978;2022-10-28T06:01:52;9.20;99.90
17571;DHT22;8903;52.220;20.978;2022-10-28T06:04:19;9.20;99.90
17571;DHT22;8903;52.220;20.978;2022-10-28T06:06:45;9.20;99.90
17571;DHT22;8903;52.220;20.978;2022-10-28T06:09:12;9.30;99.90
17571;DHT22;8903;52.220;20.978;2022-10-28T06:11:39;9.20;99.90
17571;DHT22;8903;52.220;20.978;2022-10-28T06:14:06;9.20;99.90
17571;DHT22;8903;52.220;20.978;2022-10-28T06:16:34;9.20;99.90
17571;DHT22;8903;52.220;20.978;2022-10-28T06:19:01;9.20;99.90
17571;DHT22;8903;52.220;20.978;2022-10-28T06:21:28;9.30;99.90
17571;DHT22;8903;52.220;20.978;2022-10-28T06:23:55;9.30;99.90
17571;DHT22;8903;52.220;20.978;2022-10-28T06:26:22;9.30;99.90
17571;DHT22;8903;52.220;20.978;2022-10-28T06:28:49;9.40;99.90
17571;DHT22;8903;52.220;20.978;2022-10-28T06:31:15;9.40;99.90
17571;DHT22;8903;52.220;20.978;2022-10-28T06:33:44;9.40;99.90
17571;DHT22;8903;52.220;20.978;2022-10-28T06:36:10;9.50;99.90
17571;DHT22;8903;52.220;20.978;2022-10-28T06:38:37;9.50;99.90
17571;DHT22;8903;52.220;20.978;2022-10-28T06:41:04;9.60;99.90
17571;DHT22;8903;52.220;20.978;2022-10-28T06:43:34;9.70;99.90
17571;DHT22;8903;52.220;20.978;2022-10-28T06:46:02;9.80;99.90
17571;DHT22;8903;52.220;20.978;2022-10-28T06:48:30;9.90;99.90
17571;DHT22;8903;52.220;20.978;2022-10-28T06:50:58;10.00;99.90
17571;DHT22;8903;52.220;20.978;2022-10-28T06:53:25;10.10;99.90
17571;DHT22;8903;52.220;20.978;2022-10-28T06:55:52;10.30;99.90
17571;DHT22;8903;52.220;20.978;2022-10-28T06:58:19;10.40;99.90
17571;DHT22;8903;52.220;20.978;2022-10-28T07:00:46;10.50;99.90
17571;DHT22;8903;52.220;20.978;2022-10-28T07:03:13;10.70;99.90
17571;DHT22;8903;52.220;20.978;2022-10-28T07:05:40;10.70;99.90
17571;DHT22;8903;52.220;20.978;2022-10-28T07:08:09;10.80;99.90
17571;DHT22;8903;52.220;20.978;2022-10-28T07:10:36;10.90;99.90
17571;DHT22;8903;52.220;20.978;2022-10-28T07:13:02;10.90;99.90
17571;DHT22;8903;52.220;20.978;2022-10-28T07:15:29;11.10;99.90
17571;DHT22;8903;52.220;20.978;2022-10-28T07:17:58;11.10;99.90
17571;DHT22;8903;52.220;20.978;2022-10-28T07:20:26;11.10;99.90
17571;DHT22;8903;52.220;20.978;2022-10-28T07:22:57;11.20;99.90
17571;DHT22;8903;52.220;20.978;2022-10-28T07:25:26;11.20;99.90
17571;DHT22;8903;52.220;20.978;2022-10-28T07:27:55;11.50;99.90
17571;DHT22;8903;52.220;20.978;2022-10-28T07:30:22;11.60;99.90
17571;DHT22;8903;52.220;20.978;2022-10-28T07:32:49;11.80;99.90
17571;DHT22;8903;52.220;20.978;2022-10-28T07:35:16;11.90;99.90
17571;DHT22;8903;52.220;20.978;2022-10-28T07:37:43;11.90;99.90
17571;DHT22;8903;52.220;20.978;2022-10-28T07:40:10;11.90;99.90
17571;DHT22;8903;52.220;20.978;2022-10-28T07:42:39;11.90;99.90
17571;DHT22;8903;52.220;20.978;2022-10-28T07:45:06;11.90;99.90
17571;DHT22;8903;52.220;20.978;2022-10-28T07:47:33;12.00;99.90
17571;DHT22;8903;52.220;20.978;2022-10-28T07:50:00;12.20;99.90
17571;DHT22;8903;52.220;20.978;2022-10-28T07:52:27;12.20;99.90
17571;DHT22;8903;52.220;20.978;2022-10-28T07:54:54;12.20;99.90
17571;DHT22;8903;52.220;20.978;2022-10-28T07:57:21;12.20;99.90
17571;DHT22;8903;52.220;20.978;2022-10-28T07:59:49;12.30;99.90
17571;DHT22;8903;52.220;20.978;2022-10-28T08:02:18;12.40;99.90
17571;DHT22;8903;52.220;20.978;2022-10-28T08:04:46;12.60;99.90
17571;DHT22;8903;52.220;20.978;2022-10-28T08:07:13;12.60;99.90
17571;DHT22;8903;52.220;20.978;2022-10-28T08:09:40;12.70;99.90
17571;DHT22;8903;52.220;20.978;2022-10-28T08:12:08;12.70;99.90
17571;DHT22;8903;52.220;20.978;2022-10-28T08:14:35;12.70;99.90
17571;DHT22;8903;52.220;20.978;2022-10-28T08:17:03;12.70;99.90
17571;DHT22;8903;52.220;20.978;2022-10-28T08:19:30;12.70;99.90
17571;DHT22;8903;52.220;20.978;2022-10-28T08:21:57;12.80;99.90
17571;DHT22;8903;52.220;20.978;2022-10-28T08:24:24;12.90;99.90
17571;DHT22;8903;52.220;20.978;2022-10-28T08:26:51;12.90;99.90
17571;DHT22;8903;52.220;20.978;2022-10-28T08:29:17;12.90;99.90
17571;DHT22;8903;52.220;20.978;2022-10-28T08:31:44;13.00;99.90
17571;DHT22;8903;52.220;20.978;2022-10-28T08:34:12;13.30;99.90
17571;DHT22;8903;52.220;20.978;2022-10-28T08:36:39;13.50;99.90
17571;DHT22;8903;52.220;20.978;2022-10-28T08:39:06;13.60;99.90
17571;DHT22;8903;52.220;20.978;2022-10-28T08:41:37;13.70;99.90
17571;DHT22;8903;52.220;20.978;2022-10-28T08:44:32;13.70;99.90
17571;DHT22;8903;52.220;20.978;2022-10-28T08:47:09;13.70;99.90
17571;DHT22;8903;52.220;20.978;2022-10-28T08:49:41;13.70;99.90
17571;DHT22;8903;52.220;20.978;2022-10-28T08:52:18;13.60;99.90
17571;DHT22;8903;52.220;20.978;2022-10-28T08:54:51;13.60;99.90
17571;DHT22;8903;52.220;20.978;2022-10-28T08:57:22;13.50;99.90
17571;DHT22;8903;52.220;20.978;2022-10-28T08:59:52;13.60;99.90
17571;DHT22;8903;52.220;20.978;2022-10-28T09:02:22;13.70;99.90
17571;DHT22;8903;52.220;20.978;2022-10-28T09:04:55;13.70;99.90
17571;DHT22;8903;52.220;20.978;2022-10-28T09:07:24;13.80;99.90
17571;DHT22;8903;52.220;20.978;2022-10-28T09:09:52;13.90;99.90
17571;DHT22;8903;52.220;20.978;2022-10-28T09:12:28;14.10;99.90
17571;DHT22;8903;52.220;20.978;2022-10-28T09:15:12;14.20;99.90
17571;DHT22;8903;52.220;20.978;2022-10-28T09:17:48;14.40;99.90
17571;DHT22;8903;52.220;20.978;2022-10-28T09:20:20;14.60;99.90
17571;DHT22;8903;52.220;20.978;2022-10-28T09:22:55;14.70;99.90
17571;DHT22;8903;52.220;20.978;2022-10-28T09:25:28;14.80;99.90
17571;DHT22;8903;52.220;20.978;2022-10-28T09:28:16;14.90;99.90
17571;DHT22;8903;52.220;20.978;2022-10-28T09:30:51;14.90;99.90
17571;DHT22;8903;52.220;20.978;2022-10-28T09:33:44;14.90;99.90
17571;DHT22;8903;52.220;20.978;2022-10-28T09:36:17;14.90;99.90
17571;DHT22;8903;52.220;20.978;2022-10-28T09:38:51;15.00;99.90
17571;DHT22;8903;52.220;20.978;2022-10-28T09:41:21;15.20;99.90
17571;DHT22;8903;52.220;20.978;2022-10-28T09:43:52;15.30;99.90
17571;DHT22;8903;52.220;20.978;2022-10-28T09:46:21;15.50;99.90
17571;DHT22;8903;52.220;20.978;2022-10-28T09:48:50;15.60;99.90
17571;DHT22;8903;52.220;20.978;2022-10-28T09:51:28;15.60;99.90
17571;DHT22;8903;52.220;20.978;2022-10-28T09:53:58;15.60;99.90
17571;DHT22;8903;52.220;20.978;2022-10-28T09:56:27;15.60;99.90
17571;DHT22;8903;52.220;20.978;2022-10-28T09:58:57;15.60;99.90
17571;DHT22;8903;52.220;20.978;2022-10-28T10:01:25;15.50;99.90
17571;DHT22;8903;52.220;20.978;2022-10-28T10:03:55;15.60;99.90
17571;DHT22;8903;52.220;20.978;2022-10-28T10:06:31;15.60;99.90
17571;DHT22;8903;52.220;20.978;2022-10-28T10:08:59;15.70;99.90
17571;DHT22;8903;52.220;20.978;2022-10-28T10:11:31;15.80;99.90
17571;DHT22;8903;52.220;20.978;2022-10-28T10:14:04;15.80;99.90
17571;DHT22;8903;52.220;20.978;2022-10-28T10:16:37;15.80;99.90
17571;DHT22;8903;52.220;20.978;2022-10-28T10:19:07;15.80;99.90
17571;DHT22;8903;52.220;20.978;2022-10-28T10:21:44;15.90;99.90
17571;DHT22;8903;52.220;20.978;2022-10-28T10:24:29;15.90;99.90
17571;DHT22;8903;52.220;20.978;2022-10-28T10:26:58;15.90;99.90
17571;DHT22;8903;52.220;20.978;2022-10-28T10:29:27;15.90;99.90
17571;DHT22;8903;52.220;20.978;2022-10-28T10:32:14;16.00;99.90
17571;DHT22;8903;52.220;20.978;2022-10-28T10:34:44;16.20;99.90
17571;DHT22;8903;52.220;20.978;2022-10-28T10:37:20;16.20;99.90
17571;DHT22;8903;52.220;20.978;2022-10-28T10:40:18;16.20;99.90
17571;DHT22;8903;52.220;20.978;2022-10-28T10:42:47;16.20;99.90
17571;DHT22;8903;52.220;20.978;2022-10-28T10:45:22;16.30;99.90
17571;DHT22;8903;52.220;20.978;2022-10-28T10:48:05;16.40;99.90
17571;DHT22;8903;52.220;20.978;2022-10-28T10:50:33;16.40;99.90
17571;DHT22;8903;52.220;20.978;2022-10-28T10:53:03;16.50;99.90
17571;DHT22;8903;52.220;20.978;2022-10-28T10:55:34;16.50;99.90
17571;DHT22;8903;52.220;20.978;2022-10-28T10:58:03;16.60;99.90
17571;DHT22;8903;52.220;20.978;2022-10-28T11:00:34;16.60;99.90
17571;DHT22;8903;52.220;20.978;2022-10-28T11:03:04;16.70;99.90
17571;DHT22;8903;52.220;20.978;2022-10-28T11:05:33;16.70;99.90
17571;DHT22;8903;52.220;20.978;2022-10-28T11:08:00;16.80;99.90
17571;DHT22;8903;52.220;20.978;2022-10-28T11:10:31;16.90;99.90
17571;DHT22;8903;52.220;20.978;2022-10-28T11:13:03;17.00;99.90
17571;DHT22;8903;52.220;20.978;2022-10-28T11:15:31;17.10;99.90
17571;DHT22;8903;52.220;20.978;2022-10-28T11:17:59;17.20;99.90
17571;DHT22;8903;52.220;20.978;2022-10-28T11:20:34;17.20;99.90
17571;DHT22;8903;52.220;20.978;2022-10-28T11:23:26;17.50;99.90
17571;DHT22;8903;52.220;20.978;2022-10-28T11:25:59;18.40;99.90
17571;DHT22;8903;52.220;20.978;2022-10-28T11:28:49;18.90;99.90
17571;DHT22;8903;52.220;20.978;2022-10-28T11:31:40;19.20;99.90
17571;DHT22;8903;52.220;20.978;2022-10-28T11:34:23;19.20;99.90
17571;DHT22;8903;52.220;20.978;2022-10-28T11:37:00;19.20;99.90
17571;DHT22;8903;52.220;20.978;2022-10-28T11:39:36;19.20;99.90
17571;DHT22;8903;52.220;20.978;2022-10-28T11:42:16;19.30;99.90
17571;DHT22;8903;52.220;20.978;2022-10-28T11:44:51;19.40;99.90
17571;DHT22;8903;52.220;20.978;2022-10-28T11:47:28;19.50;99.90
17571;DHT22;8903;52.220;20.978;2022-10-28T11:50:21;19.70;99.90
17571;DHT22;8903;52.220;20.978;2022-10-28T11:52:59;19.80;99.90
17571;DHT22;8903;52.220;20.978;2022-10-28T11:55:34;20.10;99.90
17571;DHT22;8903;52.220;20.978;2022-10-28T11:58:24;20.40;99.90
17571;DHT22;8903;52.220;20.978;2022-10-28T12:01:12;20.80;99.90
17571;DHT22;8903;52.220;20.978;2022-10-28T12:03:54;21.10;99.90
17571;DHT22;8903;52.220;20.978;2022-10-28T12:06:57;21.60;99.90
17571;DHT22;8903;52.220;20.978;2022-10-28T12:09:40;22.20;99.90
17571;DHT22;8903;52.220;20.978;2022-10-28T12:12:16;23.40;99.90
17571;DHT22;8903;52.220;20.978;2022-10-28T12:14:54;24.00;99.90
17571;DHT22;8903;52.220;20.978;2022-10-28T12:17:28;24.80;99.90
17571;DHT22;8903;52.220;20.978;2022-10-28T12:19:58;25.00;99.90
17571;DHT22;8903;52.220;20.978;2022-10-28T12:22:30;25.20;99.90
17571;DHT22;8903;52.220;20.978;2022-10-28T12:25:05;24.90;99.90
17571;DHT22;8903;52.220;20.978;2022-10-28T12:27:37;24.80;99.90
17571;DHT22;8903;52.220;20.978;2022-10-28T12:30:15;24.40;99.90
17571;DHT22;8903;52.220;20.978;2022-10-28T12:32:46;24.10;99.90
17571;DHT22;8903;52.220;20.978;2022-10-28T12:35:17;24.00;99.90
17571;DHT22;8903;52.220;20.978;2022-10-28T12:37:50;23.90;99.90
17571;DHT22;8903;52.220;20.978;2022-10-28T12:40:20;23.60;99.90
17571;DHT22;8903;52.220;20.978;2022-10-28T12:42:52;23.40;99.90
17571;DHT22;8903;52.220;20.978;2022-10-28T12:45:22;23.30;99.90
17571;DHT22;8903;52.220;20.978;2022-10-28T12:47:54;23.40;99.90
17571;DHT22;8903;52.220;20.978;2022-10-28T12:50:26;23.50;99.90
17571;DHT22;8903;52.220;20.978;2022-10-28T12:53:06;23.80;99.90
17571;DHT22;8903;52.220;20.978;2022-10-28T12:55:36;23.90;99.90
17571;DHT22;8903;52.220;20.978;2022-10-28T12:58:11;24.00;99.90
17571;DHT22;8903;52.220;20.978;2022-10-28T13:00:42;24.30;99.90
17571;DHT22;8903;52.220;20.978;2022-10-28T13:03:12;24.50;99.90
17571;DHT22;8903;52.220;20.978;2022-10-28T13:05:41;24.60;99.90
17571;DHT22;8903;52.220;20.978;2022-10-28T13:11:39;24.90;99.90
17571;DHT22;8903;52.220;20.978;2022-10-28T13:14:18;24.80;99.90
17571;DHT22;8903;52.220;20.978;2022-10-28T13:17:19;24.50;99.90
17571;DHT22;8903;52.220;20.978;2022-10-28T13:19:59;23.70;99.90
17571;DHT22;8903;52.220;20.978;2022-10-28T13:25:48;22.20;99.90
17571;DHT22;8903;52.220;20.978;2022-10-28T13:28:19;21.70;99.90
17571;DHT22;8903;52.220;20.978;2022-10-28T13:30:55;21.30;99.90
17571;DHT22;8903;52.220;20.978;2022-10-28T13:33:25;21.00;99.90
17571;DHT22;8903;52.220;20.978;2022-10-28T13:35:53;20.60;99.90
17571;DHT22;8903;52.220;20.978;2022-10-28T13:38:23;20.30;99.90
17571;DHT22;8903;52.220;20.978;2022-10-28T13:41:30;20.10;99.90
17571;DHT22;8903;52.220;20.978;2022-10-28T13:44:13;19.80;99.90
17571;DHT22;8903;52.220;20.978;2022-10-28T13:56:19;19.20;99.90
17571;DHT22;8903;52.220;20.978;2022-10-28T13:58:52;19.10;99.90
17571;DHT22;8903;52.220;20.978;2022-10-28T14:01:50;19.00;99.90
17571;DHT22;8903;52.220;20.978;2022-10-28T14:04:29;18.90;99.90
17571;DHT22;8903;52.220;20.978;2022-10-28T14:07:05;18.70;99.90
17571;DHT22;8903;52.220;20.978;2022-10-28T14:09:42;18.60;99.90
17571;DHT22;8903;52.220;20.978;2022-10-28T14:12:26;18.60;99.90
17571;DHT22;8903;52.220;20.978;2022-10-28T14:15:16;18.50;99.90
17571;DHT22;8903;52.220;20.978;2022-10-28T14:17:47;18.40;99.90
17571;DHT22;8903;52.220;20.978;2022-10-28T14:20:22;18.40;99.90
17571;DHT22;8903;52.220;20.978;2022-10-28T14:22:50;18.40;99.90
17571;DHT22;8903;52.220;20.978;2022-10-28T14:28:53;18.30;99.90
17571;DHT22;8903;52.220;20.978;2022-10-28T14:31:41;18.30;99.90
17571;DHT22;8903;52.220;20.978;2022-10-28T14:34:42;18.20;99.90
17571;DHT22;8903;52.220;20.978;2022-10-28T14:40:13;18.10;99.90
17571;DHT22;8903;52.220;20.978;2022-10-28T14:42:58;18.10;99.90
17571;DHT22;8903;52.220;20.978;2022-10-28T14:45:35;18.10;99.90
17571;DHT22;8903;52.220;20.978;2022-10-28T14:48:27;18.00;99.90
17571;DHT22;8903;52.220;20.978;2022-10-28T14:50:56;18.00;99.90
17571;DHT22;8903;52.220;20.978;2022-10-28T14:53:28;18.00;99.90
17571;DHT22;8903;52.220;20.978;2022-10-28T14:55:58;18.00;99.90
17571;DHT22;8903;52.220;20.978;2022-10-28T14:58:28;17.90;99.90
17571;DHT22;8903;52.220;20.978;2022-10-28T15:01:23;17.90;99.90
17571;DHT22;8903;52.220;20.978;2022-10-28T15:03:53;17.80;99.90
17571;DHT22;8903;52.220;20.978;2022-10-28T15:06:33;17.80;99.90
17571;DHT22;8903;52.220;20.978;2022-10-28T15:09:04;17.70;99.90
17571;DHT22;8903;52.220;20.978;2022-10-28T15:11:32;17.60;99.90
17571;DHT22;8903;52.220;20.978;2022-10-28T15:14:13;17.60;99.90
17571;DHT22;8903;52.220;20.978;2022-10-28T15:16:48;17.60;99.90
17571;DHT22;8903;52.220;20.978;2022-10-28T15:19:18;17.50;99.90
17571;DHT22;8903;52.220;20.978;2022-10-28T15:22:05;17.40;99.90
17571;DHT22;8903;52.220;20.978;2022-10-28T15:24:32;17.30;99.90
17571;DHT22;8903;52.220;20.978;2022-10-28T15:26:59;17.20;99.90
17571;DHT22;8903;52.220;20.978;2022-10-28T15:29:26;17.10;99.90
17571;DHT22;8903;52.220;20.978;2022-10-28T15:32:10;17.10;99.90
17571;DHT22;8903;52.220;20.978;2022-10-28T15:34:41;17.10;99.90
17571;DHT22;8903;52.220;20.978;2022-10-28T15:37:08;17.00;99.90
17571;DHT22;8903;52.220;20.978;2022-10-28T15:39:36;16.90;99.90
17571;DHT22;8903;52.220;20.978;2022-10-28T15:42:30;16.90;99.90
17571;DHT22;8903;52.220;20.978;2022-10-28T15:44:57;16.80;99.90
17571;DHT22;8903;52.220;20.978;2022-10-28T15:47:29;16.70;99.90
17571;DHT22;8903;52.220;20.978;2022-10-28T15:50:00;16.70;99.90
17571;DHT22;8903;52.220;20.978;2022-10-28T15:52:38;16.70;99.90
17571;DHT22;8903;52.220;20.978;2022-10-28T15:55:29;16.60;99.90
17571;DHT22;8903;52.220;20.978;2022-10-28T15:57:57;16.70;99.90
17571;DHT22;8903;52.220;20.978;2022-10-28T16:00:26;16.60;99.90
17571;DHT22;8903;52.220;20.978;2022-10-28T16:02:59;16.70;99.90
17571;DHT22;8903;52.220;20.978;2022-10-28T16:05:43;16.60;99.90
17571;DHT22;8903;52.220;20.978;2022-10-28T16:08:16;16.70;99.90
17571;DHT22;8903;52.220;20.978;2022-10-28T16:10:45;16.70;99.90
17571;DHT22;8903;52.220;20.978;2022-10-28T16:13:16;16.70;99.90
17571;DHT22;8903;52.220;20.978;2022-10-28T16:15:47;16.60;99.90
17571;DHT22;8903;52.220;20.978;2022-10-28T16:18:17;16.60;99.90
17571;DHT22;8903;52.220;20.978;2022-10-28T16:20:43;16.60;99.90
17571;DHT22;8903;52.220;20.978;2022-10-28T16:23:15;16.60;99.90
17571;DHT22;8903;52.220;20.978;2022-10-28T16:25:42;16.60;99.90
17571;DHT22;8903;52.220;20.978;2022-10-28T16:28:19;16.60;99.90
17571;DHT22;8903;52.220;20.978;2022-10-28T16:30:50;16.60;99.90